createdAt,value
2022-10-11T00:00:56.310Z,0.20
2022-10-11T00:03:58.271Z,0.15
2022-10-11T00:07:00.144Z,0.28
2022-10-11T00:10:02.027Z,0.20
2022-10-11T00:13:04.388Z,0.83
2022-10-11T00:16:14.187Z,0.50
2022-10-11T00:19:16.046Z,0.52
2022-10-11T00:22:17.956Z,0.50
2022-10-11T00:25:20.143Z,3.70
2022-10-11T00:28:22.117Z,0.50
2022-10-11T00:31:24.217Z,0.98
2022-10-11T00:34:26.361Z,0.40
2022-10-11T00:37:28.233Z,0.50
2022-10-11T00:40:30.087Z,0.20
2022-10-11T00:43:32.642Z,0.30
2022-10-11T00:46:34.616Z,0.75
2022-10-11T00:49:44.347Z,0.10
2022-10-11T00:52:53.241Z,0.52
2022-10-11T00:56:10.380Z,0.20
2022-10-11T00:59:16.415Z,0.43
2022-10-11T01:02:19.420Z,0.20
2022-10-11T01:05:30.321Z,0.50
2022-10-11T01:08:34.444Z,0.40
2022-10-11T01:11:39.346Z,0.52
2022-10-11T01:15:06.703Z,0.10
2022-10-11T01:18:20.684Z,0.20
2022-10-11T01:21:58.540Z,0.30
2022-10-11T01:25:23.165Z,0.10
2022-10-11T01:28:31.098Z,0.40
2022-10-11T01:31:46.248Z,0.20
2022-10-11T01:35:27.321Z,0.20
2022-10-11T01:38:32.095Z,0.30
2022-10-11T01:41:46.212Z,0.82
2022-10-11T01:44:50.648Z,0.20
2022-10-11T01:48:04.123Z,0.20
2022-10-11T01:51:06.039Z,0.30
2022-10-11T01:55:07.489Z,0.30
2022-10-11T01:58:09.832Z,0.13
2022-10-11T02:01:26.905Z,0.30
2022-10-11T02:04:52.994Z,0.73
2022-10-11T02:08:19.650Z,1.00
2022-10-11T02:11:31.580Z,0.10
2022-10-11T02:14:39.368Z,0.40
2022-10-11T02:17:46.700Z,0.25
2022-10-11T02:20:50.600Z,0.50
2022-10-11T02:24:11.377Z,0.70
2022-10-11T02:27:15.582Z,0.47
2022-10-11T02:30:17.734Z,0.52
2022-10-11T02:33:27.071Z,0.57
2022-10-11T02:36:46.358Z,1.10
2022-10-11T02:40:26.190Z,1.05
2022-10-11T02:43:52.007Z,0.68
2022-10-11T02:46:54.692Z,0.13
2022-10-11T02:49:58.707Z,1.27
2022-10-11T02:53:00.720Z,0.65
2022-10-11T02:56:02.841Z,0.22
2022-10-11T02:59:05.008Z,0.57
2022-10-11T03:02:07.724Z,0.25
2022-10-11T03:05:09.792Z,0.37
2022-10-11T03:08:14.841Z,0.43
2022-10-11T03:11:16.724Z,0.28
2022-10-11T03:14:18.549Z,0.30
2022-10-11T03:17:35.527Z,0.70
2022-10-11T03:20:37.917Z,0.57
2022-10-11T03:23:40.133Z,1.15
2022-10-11T03:26:42.039Z,0.73
2022-10-11T03:29:43.899Z,0.75
2022-10-11T03:32:45.904Z,0.65
2022-10-11T03:35:48.814Z,0.33
2022-10-11T03:38:50.685Z,0.20
2022-10-11T03:41:52.541Z,0.38
2022-10-11T03:44:54.443Z,0.70
2022-10-11T03:47:56.390Z,0.57
2022-10-11T03:50:58.205Z,0.63
2022-10-11T03:54:00.172Z,0.25
2022-10-11T03:57:03.384Z,0.40
2022-10-11T04:00:06.551Z,0.45
2022-10-11T04:03:08.539Z,0.35
2022-10-11T04:06:10.436Z,0.27
2022-10-11T04:09:12.318Z,0.55
2022-10-11T04:12:14.528Z,0.40
2022-10-11T04:15:16.615Z,0.60
2022-10-11T04:18:18.641Z,0.30
2022-10-11T04:21:20.517Z,0.33
2022-10-11T04:24:22.404Z,0.40
2022-10-11T04:27:24.331Z,0.35
2022-10-11T04:30:26.294Z,0.43
2022-10-11T04:33:28.162Z,0.43
2022-10-11T04:36:32.793Z,0.53
2022-10-11T04:39:35.007Z,0.10
2022-10-11T04:42:36.939Z,0.40
2022-10-11T04:45:38.862Z,0.77
2022-10-11T04:48:40.840Z,0.35
2022-10-11T04:51:42.781Z,0.23
2022-10-11T04:54:44.683Z,0.63
2022-10-11T04:57:46.542Z,0.38
2022-10-11T05:00:48.412Z,0.25
2022-10-11T05:03:50.329Z,0.40
2022-10-11T05:06:52.356Z,0.50
2022-10-11T05:09:54.601Z,0.70
2022-10-11T05:12:56.423Z,0.68
2022-10-11T05:15:58.423Z,0.38
2022-10-11T05:19:00.315Z,0.80
2022-10-11T05:22:02.203Z,0.20
2022-10-11T05:25:04.358Z,0.52
2022-10-11T05:28:06.791Z,0.13
2022-10-11T05:31:08.673Z,0.20
2022-10-11T05:34:10.617Z,0.47
2022-10-11T05:37:12.569Z,0.53
2022-10-11T05:40:14.824Z,0.40
2022-10-11T05:43:16.775Z,0.57
2022-10-11T05:46:18.712Z,0.20
2022-10-11T05:49:20.524Z,0.45
2022-10-11T05:52:22.378Z,0.30
2022-10-11T05:55:24.315Z,0.60
2022-10-11T05:58:26.776Z,0.38
2022-10-11T06:01:28.771Z,0.50
2022-10-11T06:04:30.748Z,0.40
2022-10-11T06:07:32.899Z,0.50
2022-10-11T06:10:35.656Z,0.32
2022-10-11T06:13:37.583Z,0.43
2022-10-11T06:16:39.493Z,0.30
2022-10-11T06:19:41.452Z,0.10
2022-10-11T06:22:43.364Z,0.20
2022-10-11T06:25:56.259Z,0.40
2022-10-11T06:28:58.677Z,0.47
2022-10-11T06:32:00.762Z,0.20
2022-10-11T06:35:03.488Z,0.30
2022-10-11T06:38:05.404Z,0.70
2022-10-11T06:41:17.453Z,0.70
2022-10-11T06:44:19.607Z,0.47
2022-10-11T06:47:21.534Z,0.40
2022-10-11T06:50:47.049Z,0.20
2022-10-11T06:53:53.704Z,0.27
2022-10-11T06:56:55.575Z,0.25
2022-10-11T06:59:57.658Z,0.57
2022-10-11T07:03:00.223Z,0.13
2022-10-11T07:06:04.734Z,0.45
2022-10-11T07:09:07.913Z,0.30
2022-10-11T07:12:09.920Z,1.27
2022-10-11T07:15:12.254Z,0.68
2022-10-11T07:18:14.137Z,0.60
2022-10-11T07:21:16.507Z,0.40
2022-10-11T07:24:18.470Z,0.30
2022-10-11T07:27:22.984Z,0.38
2022-10-11T07:30:25.020Z,0.43
2022-10-11T07:33:26.917Z,0.50
2022-10-11T07:36:28.856Z,0.47
2022-10-11T07:39:31.620Z,0.43
2022-10-11T07:42:33.558Z,0.50
2022-10-11T07:45:38.472Z,1.05
2022-10-11T07:48:40.426Z,0.63
2022-10-11T07:51:42.247Z,0.65
2022-10-11T07:54:44.178Z,0.80
2022-10-11T07:57:46.118Z,0.75
2022-10-11T08:00:53.555Z,0.68
2022-10-11T08:03:57.118Z,1.15
2022-10-11T08:06:59.101Z,0.38
2022-10-11T08:10:01.912Z,0.73
2022-10-11T08:13:04.720Z,0.55
2022-10-11T08:16:11.267Z,0.88
2022-10-11T08:19:13.565Z,0.77
2022-10-11T08:22:15.468Z,0.98
2022-10-11T08:25:17.558Z,1.43
2022-10-11T08:28:20.872Z,0.88
2022-10-11T08:31:22.808Z,0.75
2022-10-11T08:34:24.694Z,0.50
2022-10-11T08:37:28.522Z,1.05
2022-10-11T08:40:34.971Z,0.70
2022-10-11T08:43:51.776Z,1.10
2022-10-11T08:47:02.730Z,0.52
2022-10-11T08:50:07.061Z,0.63
2022-10-11T08:53:32.990Z,0.60
2022-10-11T08:56:38.785Z,0.70
2022-10-11T08:59:49.736Z,0.80
2022-10-11T09:03:16.038Z,1.20
2022-10-11T09:06:24.225Z,0.50
2022-10-11T09:09:51.180Z,1.05
2022-10-11T09:13:14.055Z,1.17
2022-10-11T09:16:31.199Z,0.40
2022-10-11T09:19:45.138Z,0.82
2022-10-11T09:22:52.767Z,1.13
2022-10-11T09:26:07.598Z,0.95
2022-10-11T09:29:28.833Z,1.30
2022-10-11T09:32:45.569Z,0.77
2022-10-11T09:35:50.526Z,0.80
2022-10-11T09:39:06.838Z,1.00
2022-10-11T09:42:11.016Z,0.80
2022-10-11T09:45:22.621Z,0.73
2022-10-11T09:48:28.605Z,0.80
2022-10-11T09:51:31.198Z,1.08
2022-10-11T09:54:42.879Z,1.02
2022-10-11T09:57:54.900Z,0.70
2022-10-11T10:01:11.561Z,0.77
2022-10-11T10:04:17.085Z,0.90
2022-10-11T10:07:19.528Z,1.30
2022-10-11T10:10:55.752Z,1.40
2022-10-11T10:14:00.595Z,1.25
2022-10-11T10:17:15.560Z,0.77
2022-10-11T10:20:24.185Z,0.73
2022-10-11T10:23:32.221Z,1.30
2022-10-11T10:26:34.797Z,1.65
2022-10-11T10:29:37.228Z,0.90
2022-10-11T10:32:51.074Z,0.80
2022-10-11T10:36:02.269Z,0.75
2022-10-11T10:39:24.833Z,0.90
2022-10-11T10:42:26.752Z,1.10
2022-10-11T10:45:42.857Z,1.48
2022-10-11T10:49:23.168Z,0.83
2022-10-11T10:52:25.222Z,1.27
2022-10-11T10:55:42.285Z,1.27
2022-10-11T10:59:15.370Z,0.90
2022-10-11T11:02:39.638Z,1.10
2022-10-11T11:05:48.501Z,1.63
2022-10-11T11:09:11.949Z,1.67
2022-10-11T11:12:38.247Z,0.60
2022-10-11T11:15:46.716Z,1.42
2022-10-11T11:19:00.836Z,1.10
2022-10-11T11:22:19.263Z,1.20
2022-10-11T11:25:35.695Z,1.38
2022-10-11T11:28:37.589Z,1.33
2022-10-11T11:32:10.807Z,1.38
2022-10-11T11:35:15.909Z,1.42
2022-10-11T11:38:28.549Z,1.03
2022-10-11T11:41:38.428Z,1.17
2022-10-11T11:44:44.864Z,1.63
2022-10-11T11:48:14.736Z,1.92
2022-10-11T11:51:41.092Z,1.30
2022-10-11T11:55:05.583Z,1.90
2022-10-11T11:58:29.241Z,1.15
2022-10-11T12:01:50.597Z,1.17
2022-10-11T12:04:53.153Z,1.10
2022-10-11T12:08:06.042Z,1.30
2022-10-11T12:11:25.475Z,1.17
2022-10-11T12:14:33.161Z,1.50
2022-10-11T12:17:56.033Z,1.50
2022-10-11T12:21:35.686Z,1.67
2022-10-11T12:25:01.739Z,1.60
2022-10-11T12:28:37.802Z,1.03
2022-10-11T12:31:45.190Z,1.00
2022-10-11T12:34:48.070Z,1.50
2022-10-11T12:37:51.927Z,1.67
2022-10-11T12:41:18.574Z,1.08
2022-10-11T12:44:29.157Z,1.00
2022-10-11T12:47:56.475Z,1.42
2022-10-11T12:51:25.649Z,0.95
2022-10-11T12:54:46.347Z,2.00
2022-10-11T12:58:07.474Z,1.27
2022-10-11T13:01:12.062Z,1.40
2022-10-11T13:04:18.817Z,1.35
2022-10-11T13:07:23.552Z,1.27
2022-10-11T13:10:36.085Z,1.50
2022-10-11T13:13:52.128Z,1.55
2022-10-11T13:17:03.957Z,1.50
2022-10-11T13:20:16.673Z,1.20
2022-10-11T13:23:28.416Z,1.35
2022-10-11T13:26:31.820Z,1.52
2022-10-11T13:29:37.595Z,1.48
2022-10-11T13:32:39.478Z,1.27
2022-10-11T13:35:41.544Z,1.50
2022-10-11T13:38:58.457Z,2.05
2022-10-11T13:42:04.575Z,2.03
2022-10-11T13:45:13.519Z,1.55
2022-10-11T13:48:16.427Z,1.43
2022-10-11T13:51:32.862Z,1.75
2022-10-11T13:55:03.943Z,1.63
2022-10-11T13:58:18.525Z,1.70
2022-10-11T14:01:27.039Z,1.67
2022-10-11T14:04:40.771Z,1.03
2022-10-11T14:07:42.724Z,1.38
2022-10-11T14:10:50.742Z,1.42
2022-10-11T14:13:56.151Z,0.68
2022-10-11T14:17:04.113Z,1.20
2022-10-11T14:20:20.427Z,1.17
2022-10-11T14:23:22.245Z,1.23
2022-10-11T14:26:25.595Z,1.23
2022-10-11T14:29:36.015Z,1.55
2022-10-11T14:32:38.374Z,1.08
2022-10-11T14:35:42.302Z,1.40
2022-10-11T14:38:44.185Z,1.25
2022-10-11T14:41:46.282Z,1.42
2022-10-11T14:44:48.122Z,1.05
2022-10-11T14:47:50.264Z,1.05
2022-10-11T14:50:57.836Z,1.50
2022-10-11T14:53:59.794Z,1.88
2022-10-11T14:57:03.881Z,1.50
2022-10-11T15:00:24.772Z,1.13
2022-10-11T15:03:26.691Z,0.75
2022-10-11T15:06:31.901Z,1.10
2022-10-11T15:09:33.859Z,1.05
2022-10-11T15:12:35.938Z,2.38
2022-10-11T15:15:41.113Z,1.33
2022-10-11T15:18:44.111Z,1.73
2022-10-11T15:21:46.565Z,2.07
2022-10-11T15:24:51.692Z,2.45
2022-10-11T15:27:55.994Z,1.40
2022-10-11T15:30:58.573Z,1.95
2022-10-11T15:34:01.844Z,1.30
2022-10-11T15:37:03.712Z,1.23
2022-10-11T15:40:25.520Z,1.75
2022-10-11T15:43:27.621Z,2.85
2022-10-11T15:46:29.576Z,8.35
2022-10-11T15:49:31.808Z,6.95
2022-10-11T15:52:33.767Z,3.77
2022-10-11T15:55:39.653Z,4.28
2022-10-11T15:58:41.817Z,3.65
2022-10-11T16:01:43.810Z,2.55
2022-10-11T16:04:45.725Z,2.92
2022-10-11T16:07:48.177Z,3.10
2022-10-11T16:10:53.095Z,1.85
2022-10-11T16:13:55.060Z,2.25
2022-10-11T16:16:57.057Z,1.80
2022-10-11T16:19:59.159Z,2.55
2022-10-11T16:23:01.052Z,2.73
2022-10-11T16:26:06.287Z,2.13
2022-10-11T16:29:08.396Z,3.38
2022-10-11T16:32:10.480Z,3.38
2022-10-11T16:35:14.161Z,2.92
2022-10-11T16:38:16.133Z,2.37
2022-10-11T16:41:18.066Z,2.13
2022-10-11T16:44:21.903Z,1.95
2022-10-11T16:47:24.016Z,1.90
2022-10-11T16:50:26.248Z,2.58
2022-10-11T16:53:28.181Z,1.73
2022-10-11T16:56:30.274Z,2.35
2022-10-11T16:59:32.191Z,2.42
2022-10-11T17:02:34.596Z,3.08
2022-10-11T17:05:37.047Z,3.08
2022-10-11T17:08:38.990Z,1.60
2022-10-11T17:11:41.859Z,2.13
2022-10-11T17:14:44.119Z,1.67
2022-10-11T17:17:46.670Z,2.42
2022-10-11T17:20:49.047Z,2.53
2022-10-11T17:23:51.435Z,2.93
2022-10-11T17:26:54.048Z,3.65
2022-10-11T17:29:56.102Z,2.15
2022-10-11T17:32:58.016Z,1.73
2022-10-11T17:36:01.113Z,2.53
2022-10-11T17:39:06.516Z,1.17
2022-10-11T17:42:09.279Z,1.63
2022-10-11T17:45:11.270Z,1.92
2022-10-11T17:48:13.231Z,1.33
2022-10-11T17:51:16.870Z,1.90
2022-10-11T17:54:18.708Z,1.30
2022-10-11T17:57:21.753Z,1.30
2022-10-11T18:00:26.916Z,1.63
2022-10-11T18:03:28.864Z,2.03
2022-10-11T18:06:37.475Z,2.67
2022-10-11T18:09:40.834Z,1.97
2022-10-11T18:12:42.761Z,1.10
2022-10-11T18:15:44.626Z,2.33
2022-10-11T18:18:47.045Z,1.60
2022-10-11T18:21:48.925Z,1.50
2022-10-11T18:24:50.812Z,1.87
2022-10-11T18:27:52.758Z,1.08
2022-10-11T18:30:56.121Z,1.40
2022-10-11T18:33:58.026Z,2.20
2022-10-11T18:37:00.204Z,1.65
2022-10-11T18:40:02.321Z,2.40
2022-10-11T18:43:04.655Z,1.48
2022-10-11T18:46:12.422Z,1.00
2022-10-11T18:49:14.625Z,1.77
2022-10-11T18:52:16.923Z,1.58
2022-10-11T18:55:18.888Z,1.90
2022-10-11T18:58:20.796Z,4.22
2022-10-11T19:01:29.380Z,1.85
2022-10-11T19:04:34.226Z,2.88
2022-10-11T19:07:37.459Z,3.33
2022-10-11T19:10:39.593Z,1.37
2022-10-11T19:13:42.532Z,2.58
2022-10-11T19:16:49.543Z,2.08
2022-10-11T19:19:51.583Z,3.03
2022-10-11T19:22:53.522Z,1.33
2022-10-11T19:25:58.502Z,2.83
2022-10-11T19:29:22.749Z,2.72
2022-10-11T19:32:24.831Z,2.47
2022-10-11T19:35:26.770Z,2.53
2022-10-11T19:38:33.130Z,1.88
2022-10-11T19:41:35.200Z,2.40
2022-10-11T19:44:39.671Z,1.67
2022-10-11T19:47:41.788Z,2.38
2022-10-11T19:50:43.715Z,2.33
2022-10-11T19:53:46.132Z,1.95
2022-10-11T19:56:48.111Z,0.97
2022-10-11T19:59:49.976Z,1.40
2022-10-11T20:02:52.119Z,1.55
2022-10-11T20:05:53.967Z,2.17
2022-10-11T20:09:24.045Z,1.52
2022-10-11T20:12:19.206Z,1.53
2022-10-11T20:15:21.084Z,1.85
2022-10-11T20:18:23.144Z,1.92
2022-10-11T20:21:26.675Z,1.30
2022-10-11T20:24:32.798Z,1.92
2022-10-11T20:27:35.508Z,1.97
2022-10-11T20:30:43.601Z,1.80
2022-10-11T20:33:46.476Z,1.27
2022-10-11T20:36:49.427Z,1.40
2022-10-11T20:39:51.479Z,1.83
2022-10-11T20:42:53.385Z,1.43
2022-10-11T20:46:03.636Z,1.35
2022-10-11T20:49:08.888Z,2.75
2022-10-11T20:52:10.843Z,1.15
2022-10-11T20:55:12.727Z,1.63
2022-10-11T20:58:15.126Z,0.97
2022-10-11T21:01:19.171Z,2.33
2022-10-11T21:04:21.355Z,1.40
2022-10-11T21:07:23.294Z,2.05
2022-10-11T21:10:25.704Z,1.48
2022-10-11T21:13:27.902Z,1.70
2022-10-11T21:16:30.426Z,2.28
2022-10-11T21:19:32.603Z,2.00
2022-10-11T21:22:35.020Z,1.27
2022-10-11T21:25:37.873Z,2.42
2022-10-11T21:28:40.706Z,1.73
2022-10-11T21:31:42.672Z,1.27
2022-10-11T21:34:44.973Z,1.77
2022-10-11T21:37:47.017Z,1.52
2022-10-11T21:40:48.944Z,1.83
2022-10-11T21:43:51.302Z,2.43
2022-10-11T21:47:08.444Z,1.92
2022-10-11T21:50:10.640Z,1.52
2022-10-11T21:53:12.475Z,0.95
2022-10-11T21:56:14.404Z,1.85
2022-10-11T21:59:16.389Z,1.40
2022-10-11T22:02:18.211Z,0.90
2022-10-11T22:05:20.166Z,1.27
2022-10-11T22:08:22.377Z,0.57
2022-10-11T22:11:24.320Z,0.90
2022-10-11T22:14:26.292Z,0.70
2022-10-11T22:17:28.224Z,1.02
2022-10-11T22:20:32.743Z,1.90
2022-10-11T22:23:34.747Z,1.98
2022-10-11T22:26:36.935Z,0.88
2022-10-11T22:29:38.770Z,0.93
2022-10-11T22:32:40.612Z,1.23
2022-10-11T22:35:42.503Z,1.13
2022-10-11T22:38:45.095Z,1.92
2022-10-11T22:41:47.001Z,1.30
2022-10-11T22:44:50.399Z,1.23
2022-10-11T22:47:52.491Z,2.08
2022-10-11T22:50:54.476Z,2.03
2022-10-11T22:53:56.407Z,1.58
2022-10-11T22:56:58.292Z,1.25
2022-10-11T23:00:00.301Z,1.27
2022-10-11T23:03:02.270Z,1.20
2022-10-11T23:06:05.118Z,1.52
2022-10-11T23:09:07.812Z,0.90
2022-10-11T23:12:09.708Z,1.27
2022-10-11T23:15:12.329Z,0.80
2022-10-11T23:18:16.148Z,1.02
2022-10-11T23:21:17.975Z,0.90
2022-10-11T23:24:19.837Z,0.50
2022-10-11T23:27:21.854Z,0.55
2022-10-11T23:30:23.918Z,1.13
2022-10-11T23:33:27.154Z,0.65
2022-10-11T23:36:29.066Z,1.30
2022-10-11T23:39:31.004Z,0.60
2022-10-11T23:42:32.864Z,0.50
2022-10-11T23:45:34.692Z,1.43
2022-10-11T23:48:36.567Z,1.45
2022-10-11T23:51:39.059Z,1.17
2022-10-11T23:54:40.971Z,1.00
2022-10-11T23:57:42.919Z,0.60
